createdAt,value
2019-01-22T00:00:46.021Z,44.20
2019-01-22T00:01:46.363Z,43.40
2019-01-22T00:02:46.137Z,44.80
2019-01-22T00:03:46.294Z,43.00
2019-01-22T00:04:46.217Z,44.00
2019-01-22T00:05:46.532Z,44.10
2019-01-22T00:06:46.812Z,46.20
2019-01-22T00:07:47.228Z,45.60
2019-01-22T00:08:47.583Z,45.40
2019-01-22T00:09:47.962Z,42.90
2019-01-22T00:10:48.266Z,43.80
2019-01-22T00:11:48.675Z,44.80
2019-01-22T00:12:49.027Z,46.90
2019-01-22T00:13:49.488Z,45.30
2019-01-22T00:14:50.131Z,43.80
2019-01-22T00:15:50.415Z,44.30
2019-01-22T00:16:51.000Z,44.00
2019-01-22T00:17:50.704Z,46.90
2019-01-22T00:18:50.973Z,46.90
2019-01-22T00:19:51.314Z,46.60
2019-01-22T00:20:51.634Z,45.60
2019-01-22T00:21:51.943Z,46.70
2019-01-22T00:22:52.279Z,45.80
2019-01-22T00:23:52.624Z,43.20
2019-01-22T00:24:52.987Z,46.90
2019-01-22T00:25:53.501Z,46.50
2019-01-22T00:26:53.755Z,48.20
2019-01-22T00:27:54.102Z,47.00
2019-01-22T00:28:54.703Z,46.50
2019-01-22T00:29:54.563Z,43.90
2019-01-22T00:30:55.234Z,47.10
2019-01-22T00:31:55.266Z,47.00
2019-01-22T00:32:56.165Z,47.70
2019-01-22T00:33:57.194Z,48.40
2019-01-22T00:34:57.005Z,48.90
2019-01-22T00:35:57.206Z,47.10
2019-01-22T00:36:57.523Z,49.00
2019-01-22T00:37:57.631Z,49.50
2019-01-22T00:38:57.889Z,44.30
2019-01-22T00:39:58.109Z,46.80
2019-01-22T00:40:58.265Z,48.80
2019-01-22T00:41:58.293Z,48.30
2019-01-22T00:42:58.789Z,48.00
2019-01-22T00:43:58.693Z,47.80
2019-01-22T00:44:58.900Z,50.10
2019-01-22T00:45:59.103Z,50.40
2019-01-22T00:46:59.228Z,48.60
2019-01-22T00:47:59.133Z,48.00
2019-01-22T00:48:59.634Z,46.90
2019-01-22T00:49:59.972Z,46.50
2019-01-22T00:50:59.954Z,46.30
2019-01-22T00:52:00.284Z,45.80
2019-01-22T00:53:00.752Z,45.90
2019-01-22T00:54:01.213Z,47.10
2019-01-22T00:55:01.539Z,46.20
2019-01-22T00:56:01.524Z,46.80
2019-01-22T00:57:02.147Z,45.50
2019-01-22T00:58:01.908Z,48.10
2019-01-22T00:59:02.475Z,45.30
2019-01-22T01:00:02.184Z,45.90
2019-01-22T01:01:02.679Z,42.90
2019-01-22T01:02:02.906Z,43.20
2019-01-22T01:03:03.220Z,45.10
2019-01-22T01:04:03.056Z,43.80
2019-01-22T01:05:03.806Z,44.30
2019-01-22T01:06:04.228Z,44.80
2019-01-22T01:07:04.576Z,43.90
2019-01-22T01:08:04.841Z,44.20
2019-01-22T01:09:04.956Z,45.70
2019-01-22T01:10:04.936Z,46.10
2019-01-22T01:11:05.627Z,45.10
2019-01-22T01:12:05.473Z,46.00
2019-01-22T01:13:05.800Z,45.30
2019-01-22T01:14:06.079Z,46.20
2019-01-22T01:15:06.822Z,48.10
2019-01-22T01:16:06.490Z,46.80
2019-01-22T01:17:06.860Z,49.70
2019-01-22T01:18:07.141Z,49.20
2019-01-22T01:19:07.735Z,48.70
2019-01-22T01:20:07.602Z,46.50
2019-01-22T01:21:07.900Z,45.50
2019-01-22T01:22:08.195Z,45.60
2019-01-22T01:23:09.187Z,47.80
2019-01-22T01:24:08.925Z,47.10
2019-01-22T01:25:09.245Z,45.90
2019-01-22T01:26:10.034Z,44.90
2019-01-22T01:27:09.930Z,45.60
2019-01-22T01:28:11.167Z,45.00
2019-01-22T01:29:11.479Z,45.60
2019-01-22T01:30:11.923Z,44.50
2019-01-22T01:31:12.418Z,46.10
2019-01-22T01:32:13.237Z,44.30
2019-01-22T01:33:12.632Z,46.80
2019-01-22T01:34:13.032Z,47.00
2019-01-22T01:35:56.775Z,46.10
2019-01-22T01:36:56.978Z,50.20
2019-01-22T01:37:57.176Z,48.10
2019-01-22T01:38:57.383Z,47.00
2019-01-22T01:39:57.600Z,47.30
2019-01-22T01:40:57.815Z,46.50
2019-01-22T01:41:58.170Z,50.40
2019-01-22T01:42:58.367Z,48.70
2019-01-22T01:43:58.576Z,49.50
2019-01-22T01:44:58.773Z,47.50
2019-01-22T01:45:58.987Z,48.50
2019-01-22T01:46:59.231Z,47.40
2019-01-22T01:47:59.434Z,45.70
2019-01-22T01:48:59.642Z,47.70
2019-01-22T01:49:59.841Z,48.90
2019-01-22T01:51:00.056Z,45.70
2019-01-22T01:52:00.258Z,44.70
2019-01-22T01:53:00.464Z,43.80
2019-01-22T01:54:00.657Z,43.90
2019-01-22T01:55:00.867Z,44.60
2019-01-22T01:56:01.326Z,44.30
2019-01-22T01:57:01.542Z,43.00
2019-01-22T01:58:01.750Z,45.70
2019-01-22T01:59:01.961Z,48.60
2019-01-22T02:00:02.170Z,47.80
2019-01-22T02:01:02.225Z,48.50
2019-01-22T02:02:02.472Z,48.50
2019-01-22T02:03:02.685Z,48.50
2019-01-22T02:04:02.895Z,50.10
2019-01-22T02:05:03.114Z,50.40
2019-01-22T02:06:03.338Z,52.30
2019-01-22T02:07:03.553Z,54.70
2019-01-22T02:08:03.739Z,52.10
2019-01-22T02:09:03.925Z,52.40
2019-01-22T02:10:04.160Z,51.70
2019-01-22T02:11:04.540Z,50.50
2019-01-22T02:12:04.742Z,52.10
2019-01-22T02:13:04.962Z,53.00
2019-01-22T02:14:10.721Z,51.80
2019-01-22T02:15:10.729Z,53.20
2019-01-22T02:16:10.914Z,48.60
2019-01-22T02:17:18.215Z,49.50
2019-01-22T02:18:34.094Z,47.50
2019-01-22T02:19:41.215Z,48.20
2019-01-22T02:20:45.715Z,50.80
2019-01-22T02:21:47.268Z,48.40
2019-01-22T02:22:48.775Z,48.30
2019-01-22T02:23:58.792Z,46.20
2019-01-22T02:25:00.309Z,47.20
2019-01-22T02:27:00.833Z,47.50
2019-01-22T02:28:02.362Z,47.60
2019-01-22T02:29:23.194Z,48.10
2019-01-22T02:30:38.304Z,45.70
2019-01-22T02:31:46.301Z,46.80
2019-01-22T02:32:46.730Z,47.00
2019-01-22T02:33:46.968Z,45.30
2019-01-22T02:34:55.843Z,46.30
2019-01-22T02:36:03.187Z,45.70
2019-01-22T02:37:03.395Z,45.90
2019-01-22T02:38:04.909Z,46.00
2019-01-22T02:39:06.414Z,47.00
2019-01-22T02:41:06.657Z,43.70
2019-01-22T02:42:11.098Z,46.50
2019-01-22T02:43:11.512Z,45.60
2019-01-22T02:44:21.164Z,44.50
2019-01-22T02:45:25.360Z,43.20
2019-01-22T02:46:26.884Z,46.00
2019-01-22T02:47:40.633Z,43.80
2019-01-22T02:48:54.763Z,43.50
2019-01-22T02:49:56.261Z,43.80
2019-01-22T02:50:57.766Z,41.90
2019-01-22T02:52:05.283Z,42.00
2019-01-22T02:53:06.800Z,41.30
2019-01-22T02:54:08.318Z,42.40
2019-01-22T02:55:08.748Z,41.20
2019-01-22T02:56:10.281Z,40.30
2019-01-22T02:57:21.863Z,38.90
2019-01-22T02:58:32.145Z,40.50
2019-01-22T02:59:33.662Z,40.20
2019-01-22T03:00:56.601Z,40.90
2019-01-22T03:01:58.266Z,39.70
2019-01-22T03:03:20.507Z,39.40
2019-01-22T03:04:24.923Z,40.50
2019-01-22T03:05:26.657Z,41.70
2019-01-22T03:06:49.262Z,41.80
2019-01-22T03:07:50.765Z,40.30
2019-01-22T03:09:12.118Z,41.30
2019-01-22T03:10:22.590Z,41.80
2019-01-22T03:11:46.519Z,41.50
2019-01-22T03:12:52.508Z,40.40
2019-01-22T03:13:56.949Z,44.10
2019-01-22T03:15:04.215Z,43.90
2019-01-22T03:16:05.761Z,43.90
2019-01-22T03:17:25.634Z,42.20
2019-01-22T03:18:30.542Z,43.80
2019-01-22T03:19:38.058Z,44.10
2019-01-22T03:20:42.400Z,44.20
2019-01-22T03:21:51.698Z,44.70
2019-01-22T03:22:53.206Z,43.60
2019-01-22T03:23:54.734Z,44.90
2019-01-22T03:24:59.289Z,44.10
2019-01-22T03:26:00.165Z,45.30
2019-01-22T03:27:00.469Z,43.60
2019-01-22T03:28:04.342Z,44.70
2019-01-22T03:29:11.629Z,43.10
2019-01-22T03:30:13.147Z,44.00
2019-01-22T03:31:23.947Z,44.30
2019-01-22T03:32:28.584Z,42.80
2019-01-22T03:33:37.069Z,43.60
2019-01-22T03:35:41.466Z,43.60
2019-01-22T03:36:52.561Z,43.80
2019-01-22T03:37:57.076Z,44.10
2019-01-22T03:39:06.722Z,42.30
2019-01-22T03:40:13.423Z,43.80
2019-01-22T03:41:14.934Z,43.90
2019-01-22T03:42:16.466Z,41.70
2019-01-22T03:43:24.054Z,42.30
2019-01-22T03:44:28.425Z,41.80
2019-01-22T03:45:34.794Z,42.40
2019-01-22T03:46:35.009Z,41.60
2019-01-22T03:47:36.353Z,42.40
2019-01-22T03:48:41.942Z,42.10
2019-01-22T03:49:46.404Z,40.70
2019-01-22T03:50:46.564Z,40.50
2019-01-22T03:51:48.072Z,43.20
2019-01-22T03:53:05.977Z,43.10
2019-01-22T03:54:06.031Z,42.30
2019-01-22T03:55:18.963Z,42.20
2019-01-22T03:56:20.550Z,43.40
2019-01-22T03:57:20.966Z,42.00
2019-01-22T03:58:24.245Z,43.00
2019-01-22T03:59:24.448Z,44.60
2019-01-22T04:00:24.646Z,44.30
2019-01-22T04:01:24.894Z,43.50
2019-01-22T04:02:25.321Z,40.30
2019-01-22T04:03:25.708Z,42.50
2019-01-22T04:04:25.925Z,43.30
2019-01-22T04:05:26.126Z,44.50
2019-01-22T04:06:26.333Z,43.30
2019-01-22T04:07:26.369Z,43.60
2019-01-22T04:08:26.562Z,42.00
2019-01-22T04:09:26.760Z,43.50
2019-01-22T04:10:29.751Z,42.10
2019-01-22T04:11:31.798Z,41.70
2019-01-22T04:12:36.326Z,41.60
2019-01-22T04:13:36.527Z,42.30
2019-01-22T04:14:36.751Z,41.80
2019-01-22T04:15:36.948Z,43.30
2019-01-22T04:16:37.317Z,42.00
2019-01-22T04:17:37.503Z,40.90
2019-01-22T04:18:37.699Z,42.80
2019-01-22T04:19:37.908Z,41.20
2019-01-22T04:20:38.127Z,40.80
2019-01-22T04:21:38.202Z,39.70
2019-01-22T04:22:38.678Z,40.90
2019-01-22T04:23:38.814Z,40.30
2019-01-22T04:24:42.911Z,39.40
2019-01-22T04:25:44.448Z,41.20
2019-01-22T04:26:44.775Z,42.60
2019-01-22T04:27:52.384Z,41.20
2019-01-22T04:28:52.597Z,39.60
2019-01-22T04:31:01.527Z,40.70
2019-01-22T04:32:06.950Z,38.40
2019-01-22T04:33:07.380Z,38.20
2019-01-22T04:34:08.888Z,41.10
2019-01-22T04:35:10.406Z,40.70
2019-01-22T04:36:20.651Z,40.70
2019-01-22T04:37:22.169Z,39.20
2019-01-22T04:38:23.578Z,41.30
2019-01-22T04:39:53.208Z,39.90
2019-01-22T04:40:54.736Z,40.90
2019-01-22T04:42:05.011Z,40.80
2019-01-22T04:43:28.402Z,41.90
2019-01-22T04:44:29.910Z,40.80
2019-01-22T04:45:37.487Z,39.00
2019-01-22T04:46:54.106Z,41.50
2019-01-22T04:47:58.388Z,40.60
2019-01-22T04:48:58.652Z,40.40
2019-01-22T04:50:08.090Z,40.50
2019-01-22T04:51:19.958Z,40.20
2019-01-22T04:52:19.972Z,41.40
2019-01-22T04:53:43.273Z,40.80
2019-01-22T04:54:50.466Z,41.60
2019-01-22T04:55:52.006Z,41.60
2019-01-22T04:56:53.597Z,42.70
2019-01-22T04:57:53.921Z,41.20
2019-01-22T04:58:54.310Z,41.90
2019-01-22T04:59:55.818Z,40.60
2019-01-22T05:00:57.337Z,41.90
2019-01-22T05:01:58.847Z,41.60
2019-01-22T05:03:00.375Z,40.80
2019-01-22T05:04:08.261Z,39.80
2019-01-22T05:05:15.354Z,39.80
2019-01-22T05:06:16.877Z,42.30
2019-01-22T05:07:21.250Z,42.10
2019-01-22T05:08:21.517Z,42.80
2019-01-22T05:09:17.442Z,40.80
2019-01-22T05:09:38.691Z,39.40
2019-01-22T05:10:38.894Z,40.20
2019-01-22T05:11:38.910Z,40.10
2019-01-22T05:12:39.288Z,40.00
2019-01-22T05:13:39.433Z,39.00
2019-01-22T05:14:39.780Z,40.40
2019-01-22T05:15:40.302Z,40.00
2019-01-22T05:16:40.868Z,40.30
2019-01-22T05:17:40.984Z,38.70
2019-01-22T05:18:41.460Z,41.40
2019-01-22T05:19:41.453Z,38.30
2019-01-22T05:20:42.181Z,40.40
2019-01-22T05:21:42.193Z,37.50
2019-01-22T05:22:42.699Z,39.10
2019-01-22T05:23:42.927Z,39.90
2019-01-22T05:24:43.175Z,39.50
2019-01-22T05:25:43.055Z,39.00
2019-01-22T05:26:43.187Z,40.20
2019-01-22T05:27:43.141Z,39.30
2019-01-22T05:28:43.655Z,39.50
2019-01-22T05:29:43.865Z,37.80
2019-01-22T05:30:46.339Z,39.70
2019-01-22T05:31:43.885Z,39.00
2019-01-22T05:32:44.046Z,38.20
2019-01-22T05:33:44.089Z,38.40
2019-01-22T05:34:44.623Z,38.90
2019-01-22T05:35:44.377Z,38.30
2019-01-22T05:36:45.040Z,39.70
2019-01-22T05:37:45.357Z,39.10
2019-01-22T05:38:45.465Z,39.00
2019-01-22T05:39:45.674Z,38.70
2019-01-22T05:40:46.048Z,40.00
2019-01-22T05:41:46.153Z,38.20
2019-01-22T05:42:46.149Z,39.20
2019-01-22T05:43:46.473Z,39.30
2019-01-22T05:44:46.785Z,39.70
2019-01-22T05:45:47.032Z,39.70
2019-01-22T05:46:47.089Z,38.60
2019-01-22T05:47:46.886Z,40.50
2019-01-22T05:48:47.059Z,38.20
2019-01-22T05:49:47.509Z,37.60
2019-01-22T05:50:47.829Z,38.40
2019-01-22T05:51:48.255Z,38.00
2019-01-22T05:52:48.355Z,37.60
2019-01-22T05:53:48.552Z,38.40
2019-01-22T05:54:49.251Z,38.90
2019-01-22T05:55:49.504Z,38.50
2019-01-22T05:56:49.289Z,39.60
2019-01-22T05:57:49.327Z,39.60
2019-01-22T05:58:49.412Z,38.50
2019-01-22T05:59:49.696Z,38.90
2019-01-22T06:00:49.774Z,36.80
2019-01-22T06:01:50.043Z,37.60
2019-01-22T06:02:50.894Z,39.60
2019-01-22T06:03:50.777Z,40.00
2019-01-22T06:04:50.883Z,40.30
2019-01-22T06:05:51.203Z,38.60
2019-01-22T06:06:51.253Z,38.80
2019-01-22T06:07:52.038Z,41.40
2019-01-22T06:08:52.007Z,41.00
2019-01-22T06:09:52.305Z,37.90
2019-01-22T06:10:52.951Z,39.90
2019-01-22T06:11:53.358Z,40.10
2019-01-22T06:12:53.618Z,39.00
2019-01-22T06:13:53.798Z,38.90
2019-01-22T06:14:53.921Z,39.70
2019-01-22T06:15:54.096Z,39.10
2019-01-22T06:16:54.175Z,41.90
2019-01-22T06:17:54.185Z,39.90
2019-01-22T06:18:54.463Z,40.70
2019-01-22T06:19:54.943Z,40.90
2019-01-22T06:20:54.893Z,40.90
2019-01-22T06:21:55.578Z,43.20
2019-01-22T06:22:56.399Z,44.60
2019-01-22T06:23:56.924Z,45.50
2019-01-22T06:24:57.236Z,45.20
2019-01-22T06:25:57.342Z,43.10
2019-01-22T06:26:57.880Z,44.80
2019-01-22T06:27:58.067Z,45.40
2019-01-22T06:28:58.278Z,48.00
2019-01-22T06:29:58.389Z,47.70
2019-01-22T06:30:58.495Z,48.00
2019-01-22T06:31:58.710Z,47.20
2019-01-22T06:32:58.734Z,45.50
2019-01-22T06:33:59.019Z,48.90
2019-01-22T06:34:59.437Z,49.70
2019-01-22T06:35:59.337Z,53.50
2019-01-22T06:37:00.060Z,51.40
2019-01-22T06:38:00.491Z,51.40
2019-01-22T06:39:00.504Z,53.10
2019-01-22T06:40:00.713Z,53.70
2019-01-22T06:41:00.703Z,54.30
2019-01-22T06:42:00.958Z,54.80
2019-01-22T06:43:01.143Z,57.20
2019-01-22T06:44:00.962Z,55.70
2019-01-22T06:45:01.353Z,53.60
2019-01-22T06:46:01.762Z,56.60
2019-01-22T06:47:02.360Z,54.50
2019-01-22T06:48:02.707Z,53.40
2019-01-22T06:49:02.801Z,54.40
2019-01-22T06:50:02.689Z,53.30
2019-01-22T06:51:03.064Z,53.50
2019-01-22T06:52:03.346Z,50.40
2019-01-22T06:53:03.633Z,51.70
2019-01-22T06:54:03.504Z,52.10
2019-01-22T06:55:03.967Z,50.50
2019-01-22T06:56:04.294Z,52.40
2019-01-22T06:57:04.624Z,52.10
2019-01-22T06:58:04.813Z,51.80
2019-01-22T06:59:05.086Z,50.50
2019-01-22T07:00:05.171Z,48.90
2019-01-22T07:01:05.451Z,52.50
2019-01-22T07:02:05.735Z,53.20
2019-01-22T07:03:06.188Z,48.60
2019-01-22T07:04:06.198Z,46.20
2019-01-22T07:05:06.149Z,49.00
2019-01-22T07:06:06.743Z,48.10
2019-01-22T07:07:06.689Z,45.30
2019-01-22T07:08:06.975Z,50.00
2019-01-22T07:09:07.359Z,47.90
2019-01-22T07:10:07.772Z,50.60
2019-01-22T07:11:07.995Z,48.20
2019-01-22T07:12:08.218Z,47.50
2019-01-22T07:13:08.283Z,50.30
2019-01-22T07:14:08.480Z,51.10
2019-01-22T07:15:08.556Z,49.80
2019-01-22T07:16:08.747Z,47.90
2019-01-22T07:17:09.037Z,50.50
2019-01-22T07:18:09.401Z,50.00
2019-01-22T07:19:09.712Z,51.70
2019-01-22T07:20:09.813Z,51.00
2019-01-22T07:21:09.891Z,49.90
2019-01-22T07:22:11.219Z,50.10
2019-01-22T07:23:11.121Z,49.60
2019-01-22T07:24:11.858Z,50.90
2019-01-22T07:25:11.756Z,50.80
2019-01-22T07:26:11.757Z,50.10
2019-01-22T07:27:11.870Z,53.10
2019-01-22T07:28:12.282Z,53.30
2019-01-22T07:29:12.383Z,51.30
2019-01-22T07:30:12.718Z,50.00
2019-01-22T07:31:12.743Z,51.40
2019-01-22T07:32:13.128Z,54.60
2019-01-22T07:33:13.237Z,51.70
2019-01-22T07:34:13.550Z,52.50
2019-01-22T07:35:13.359Z,51.50
2019-01-22T07:36:13.666Z,51.80
2019-01-22T07:37:14.088Z,52.80
2019-01-22T07:38:14.091Z,51.20
2019-01-22T07:39:14.397Z,51.00
2019-01-22T07:40:15.030Z,52.20
2019-01-22T07:41:14.722Z,55.20
2019-01-22T07:42:14.795Z,52.20
2019-01-22T07:43:15.042Z,53.50
2019-01-22T07:44:15.345Z,53.90
2019-01-22T07:45:15.994Z,53.10
2019-01-22T07:46:15.986Z,51.10
2019-01-22T07:47:16.014Z,52.70
2019-01-22T07:48:16.115Z,50.20
2019-01-22T07:49:16.786Z,55.80
2019-01-22T07:50:17.039Z,53.80
2019-01-22T07:51:17.212Z,54.10
2019-01-22T07:52:17.538Z,56.20
2019-01-22T07:53:17.431Z,51.80
2019-01-22T07:54:19.507Z,54.50
2019-01-22T07:55:18.086Z,54.50
2019-01-22T07:56:18.132Z,54.10
2019-01-22T07:57:18.376Z,53.80
2019-01-22T07:58:18.831Z,56.30
2019-01-22T07:59:18.663Z,53.40
2019-01-22T08:00:18.775Z,55.80
2019-01-22T08:01:18.935Z,55.40
2019-01-22T08:02:19.302Z,53.30
2019-01-22T08:03:19.719Z,54.70
2019-01-22T08:04:20.402Z,55.70
2019-01-22T08:05:20.436Z,57.30
2019-01-22T08:06:20.715Z,54.40
2019-01-22T08:07:20.855Z,53.70
2019-01-22T08:08:20.861Z,56.00
2019-01-22T08:09:21.763Z,58.60
2019-01-22T08:10:21.481Z,54.00
2019-01-22T08:11:22.601Z,54.50
2019-01-22T08:12:22.013Z,58.70
2019-01-22T08:13:22.092Z,55.90
2019-01-22T08:14:22.177Z,56.80
2019-01-22T08:15:22.546Z,54.80
2019-01-22T08:16:22.875Z,55.00
2019-01-22T08:17:23.193Z,53.10
2019-01-22T08:18:23.291Z,56.10
2019-01-22T08:19:23.499Z,57.20
2019-01-22T08:20:23.816Z,52.70
2019-01-22T08:21:24.309Z,54.40
2019-01-22T08:22:24.477Z,57.80
2019-01-22T08:23:24.660Z,54.70
2019-01-22T08:24:25.016Z,54.10
2019-01-22T08:25:25.050Z,56.30
2019-01-22T08:26:25.676Z,55.90
2019-01-22T08:27:29.644Z,54.90
2019-01-22T08:28:26.400Z,55.90
2019-01-22T08:29:26.095Z,55.10
2019-01-22T08:30:26.923Z,57.20
2019-01-22T08:31:27.144Z,56.30
2019-01-22T08:32:27.451Z,59.20
2019-01-22T08:33:27.663Z,57.80
2019-01-22T08:34:27.860Z,54.40
2019-01-22T08:35:28.287Z,55.30
2019-01-22T08:36:28.133Z,55.80
2019-01-22T08:37:28.612Z,59.60
2019-01-22T08:38:28.715Z,57.20
2019-01-22T08:39:28.639Z,58.00
2019-01-22T08:40:29.237Z,60.90
2019-01-22T08:41:29.151Z,57.50
2019-01-22T08:42:29.138Z,58.00
2019-01-22T08:43:29.429Z,59.50
2019-01-22T08:44:29.776Z,58.30
2019-01-22T08:45:29.669Z,60.30
2019-01-22T08:46:29.729Z,59.40
2019-01-22T08:47:30.118Z,58.50
2019-01-22T08:48:30.103Z,59.30
2019-01-22T08:49:30.326Z,58.50
2019-01-22T08:50:30.732Z,59.90
2019-01-22T08:51:30.874Z,58.90
2019-01-22T08:52:31.064Z,61.20
2019-01-22T08:53:31.197Z,60.60
2019-01-22T08:54:31.013Z,59.40
2019-01-22T08:55:31.415Z,57.60
2019-01-22T08:56:31.867Z,58.00
2019-01-22T08:58:32.014Z,59.90
2019-01-22T08:59:31.858Z,61.30
2019-01-22T09:00:32.339Z,59.70
2019-01-22T09:01:35.502Z,58.00
2019-01-22T09:02:32.498Z,60.80
2019-01-22T09:03:33.179Z,60.70
2019-01-22T09:04:33.343Z,60.70
2019-01-22T09:05:33.620Z,60.30
2019-01-22T09:06:33.847Z,59.60
2019-01-22T09:07:34.263Z,58.20
2019-01-22T09:08:34.689Z,59.40
2019-01-22T09:09:35.153Z,58.90
2019-01-22T09:10:35.109Z,56.60
2019-01-22T09:11:35.235Z,57.60
2019-01-22T09:12:35.599Z,60.40
2019-01-22T09:13:35.768Z,58.40
2019-01-22T09:14:36.071Z,59.60
2019-01-22T09:15:36.261Z,59.20
2019-01-22T09:16:36.465Z,58.50
2019-01-22T09:17:36.912Z,58.50
2019-01-22T09:18:37.104Z,60.20
2019-01-22T09:19:37.515Z,56.90
2019-01-22T09:20:37.591Z,52.30
2019-01-22T09:21:37.901Z,52.00
2019-01-22T09:22:38.039Z,52.70
2019-01-22T09:23:38.165Z,54.60
2019-01-22T09:24:38.426Z,57.30
2019-01-22T09:25:38.917Z,57.00
2019-01-22T09:26:38.775Z,55.50
2019-01-22T09:27:39.080Z,51.60
2019-01-22T09:28:39.223Z,52.20
2019-01-22T09:29:39.561Z,53.10
2019-01-22T09:30:39.692Z,53.30
2019-01-22T09:31:39.942Z,54.00
2019-01-22T09:32:41.258Z,56.90
2019-01-22T09:33:41.878Z,54.50
2019-01-22T09:34:42.084Z,58.50
2019-01-22T09:35:42.399Z,55.20
2019-01-22T09:36:42.720Z,54.90
2019-01-22T09:37:42.926Z,54.80
2019-01-22T09:38:43.033Z,52.50
2019-01-22T09:39:43.435Z,52.70
2019-01-22T09:40:43.662Z,53.30
2019-01-22T09:41:43.869Z,50.60
2019-01-22T09:42:44.172Z,54.30
2019-01-22T09:43:44.088Z,54.90
2019-01-22T09:44:44.406Z,54.50
2019-01-22T09:45:44.595Z,56.20
2019-01-22T09:46:44.663Z,55.50
2019-01-22T09:47:44.923Z,54.70
2019-01-22T09:48:45.004Z,55.00
2019-01-22T09:49:45.356Z,53.90
2019-01-22T09:50:45.728Z,52.20
2019-01-22T09:51:48.675Z,52.20
2019-01-22T09:52:46.109Z,52.20
2019-01-22T09:53:46.543Z,53.00
2019-01-22T09:54:46.798Z,55.70
2019-01-22T09:55:47.332Z,50.20
2019-01-22T09:56:47.070Z,51.70
2019-01-22T09:57:47.535Z,54.90
2019-01-22T09:58:47.776Z,54.20
2019-01-22T09:59:48.540Z,53.30
2019-01-22T10:00:48.809Z,53.10
2019-01-22T10:01:48.656Z,53.20
2019-01-22T10:02:48.973Z,53.90
2019-01-22T10:03:49.353Z,50.70
2019-01-22T10:04:49.687Z,52.60
2019-01-22T10:05:50.013Z,52.90
2019-01-22T10:06:50.314Z,52.40
2019-01-22T10:07:50.630Z,54.70
2019-01-22T10:08:50.872Z,54.00
2019-01-22T10:09:51.264Z,51.50
2019-01-22T10:10:52.093Z,53.20
2019-01-22T10:11:51.883Z,55.30
2019-01-22T10:12:52.220Z,53.80
2019-01-22T10:13:52.949Z,53.80
2019-01-22T10:14:52.726Z,54.40
2019-01-22T10:15:53.014Z,55.60
2019-01-22T10:16:53.593Z,52.20
2019-01-22T10:17:53.689Z,51.00
2019-01-22T10:18:53.798Z,51.10
2019-01-22T10:19:53.592Z,51.90
2019-01-22T10:20:53.943Z,52.00
2019-01-22T10:21:54.326Z,51.40
2019-01-22T10:23:54.902Z,50.70
2019-01-22T10:24:54.745Z,54.10
2019-01-22T10:25:55.216Z,51.40
2019-01-22T10:26:56.759Z,50.10
2019-01-22T10:27:56.367Z,50.20
2019-01-22T10:28:56.566Z,49.30
2019-01-22T10:29:57.093Z,0.00
2019-01-22T10:30:57.093Z,52.50
2019-01-22T10:31:57.508Z,48.90
2019-01-22T10:32:57.899Z,49.60
2019-01-22T10:33:58.228Z,46.70
2019-01-22T10:34:58.658Z,48.40
2019-01-22T10:35:59.116Z,46.40
2019-01-22T10:36:59.260Z,45.70
2019-01-22T10:37:58.967Z,46.30
2019-01-22T10:38:59.501Z,46.20
2019-01-22T10:39:59.476Z,47.30
2019-01-22T10:40:59.833Z,51.10
2019-01-22T10:42:00.344Z,54.10
2019-01-22T10:42:59.985Z,48.30
2019-01-22T10:44:00.253Z,46.80
2019-01-22T10:45:00.469Z,44.10
2019-01-22T10:46:00.919Z,45.00
2019-01-22T10:47:01.092Z,45.00
2019-01-22T10:48:01.811Z,46.10
2019-01-22T10:49:02.023Z,47.00
2019-01-22T10:50:01.933Z,46.60
2019-01-22T10:51:02.344Z,44.80
2019-01-22T10:52:02.244Z,47.40
2019-01-22T10:53:02.016Z,54.30
2019-01-22T10:54:02.659Z,51.50
2019-01-22T10:55:03.079Z,51.70
2019-01-22T10:56:02.715Z,50.00
2019-01-22T10:57:03.395Z,50.90
2019-01-22T10:58:08.593Z,50.10
2019-01-22T10:59:03.427Z,59.10
2019-01-22T11:00:04.221Z,50.60
2019-01-22T11:01:04.308Z,47.10
2019-01-22T11:02:04.606Z,46.60
2019-01-22T11:03:04.962Z,48.90
2019-01-22T11:04:05.276Z,52.70
2019-01-22T11:05:05.552Z,48.80
2019-01-22T11:06:05.984Z,50.60
2019-01-22T11:07:06.368Z,50.30
2019-01-22T11:08:06.695Z,51.50
2019-01-22T11:09:07.683Z,49.80
2019-01-22T11:10:07.903Z,48.70
2019-01-22T11:11:07.650Z,49.80
2019-01-22T11:12:07.954Z,50.20
2019-01-22T11:13:08.270Z,49.00
2019-01-22T11:14:08.575Z,52.10
2019-01-22T11:15:08.903Z,49.40
2019-01-22T11:16:09.376Z,47.30
2019-01-22T11:17:09.886Z,49.70
2019-01-22T11:18:09.643Z,45.80
2019-01-22T11:19:09.876Z,51.80
2019-01-22T11:20:10.834Z,49.00
2019-01-22T11:21:11.369Z,53.60
2019-01-22T11:22:11.456Z,51.50
2019-01-22T11:23:11.770Z,51.00
2019-01-22T11:24:12.183Z,51.10
2019-01-22T11:25:12.494Z,49.80
2019-01-22T11:26:12.920Z,49.60
2019-01-22T11:27:12.953Z,51.10
2019-01-22T11:28:13.232Z,50.90
2019-01-22T11:29:13.649Z,48.60
2019-01-22T11:30:13.859Z,49.70
2019-01-22T11:31:14.374Z,49.20
2019-01-22T11:32:14.602Z,51.50
2019-01-22T11:33:14.662Z,48.50
2019-01-22T11:34:14.500Z,47.20
2019-01-22T11:35:15.225Z,50.40
2019-01-22T11:36:15.438Z,53.30
2019-01-22T11:37:15.106Z,50.90
2019-01-22T11:38:15.632Z,52.00
2019-01-22T11:39:15.296Z,48.90
2019-01-22T11:40:15.771Z,51.60
2019-01-22T11:41:15.953Z,49.50
2019-01-22T11:42:16.071Z,48.30
2019-01-22T11:43:16.125Z,49.10
2019-01-22T11:44:16.088Z,50.10
2019-01-22T11:45:17.228Z,48.80
2019-01-22T11:46:16.836Z,51.30
2019-01-22T11:47:16.685Z,50.70
2019-01-22T11:48:16.919Z,49.50
2019-01-22T11:49:23.230Z,48.60
2019-01-22T11:50:17.953Z,48.20
2019-01-22T11:51:17.826Z,49.80
2019-01-22T11:52:18.288Z,46.70
2019-01-22T11:53:18.651Z,50.60
2019-01-22T11:54:18.973Z,50.60
2019-01-22T11:55:19.528Z,54.30
2019-01-22T11:56:19.549Z,49.50
2019-01-22T11:57:19.529Z,50.20
2019-01-22T11:58:19.765Z,50.80
2019-01-22T11:59:20.202Z,49.30
2019-01-22T12:00:20.783Z,50.20
2019-01-22T12:01:20.824Z,48.70
2019-01-22T12:02:20.698Z,51.30
2019-01-22T12:03:21.070Z,50.50
2019-01-22T12:04:21.400Z,49.50
2019-01-22T12:05:21.656Z,47.50
2019-01-22T12:06:22.037Z,49.30
2019-01-22T12:07:22.486Z,47.80
2019-01-22T12:08:22.743Z,54.00
2019-01-22T12:09:23.127Z,51.50
2019-01-22T12:10:23.480Z,49.70
2019-01-22T12:11:23.788Z,49.10
2019-01-22T12:12:24.370Z,48.40
2019-01-22T12:13:24.210Z,47.10
2019-01-22T12:14:24.693Z,47.50
2019-01-22T12:15:25.301Z,45.80
2019-01-22T12:16:25.429Z,49.40
2019-01-22T12:17:26.158Z,48.90
2019-01-22T12:18:26.567Z,45.80
2019-01-22T12:19:26.765Z,45.80
2019-01-22T12:20:26.985Z,47.40
2019-01-22T12:21:27.197Z,46.80
2019-01-22T12:22:27.830Z,46.10
2019-01-22T12:23:28.124Z,49.70
2019-01-22T12:24:28.349Z,46.40
2019-01-22T12:25:28.761Z,47.40
2019-01-22T12:26:29.075Z,43.70
2019-01-22T12:27:29.387Z,44.20
2019-01-22T12:28:29.338Z,44.00
2019-01-22T12:29:29.709Z,44.40
2019-01-22T12:30:29.918Z,42.50
2019-01-22T12:31:30.233Z,44.00
2019-01-22T12:32:30.789Z,43.00
2019-01-22T12:33:30.763Z,43.60
2019-01-22T12:34:30.965Z,44.20
2019-01-22T12:35:31.388Z,41.80
2019-01-22T12:36:31.441Z,41.60
2019-01-22T12:37:31.244Z,43.80
2019-01-22T12:38:31.806Z,46.00
2019-01-22T12:39:32.007Z,43.30
2019-01-22T12:41:31.878Z,43.10
2019-01-22T12:42:32.142Z,42.40
2019-01-22T12:43:32.398Z,42.50
2019-01-22T12:44:32.663Z,41.20
2019-01-22T12:45:33.021Z,38.20
2019-01-22T12:46:33.417Z,40.20
2019-01-22T12:47:34.132Z,42.20
2019-01-22T12:48:34.007Z,41.80
2019-01-22T12:49:34.265Z,41.60
2019-01-22T12:50:34.714Z,42.60
2019-01-22T12:51:34.691Z,42.70
2019-01-22T12:52:35.012Z,41.90
2019-01-22T12:53:35.335Z,40.70
2019-01-22T12:54:35.702Z,41.70
2019-01-22T12:55:36.163Z,41.80
2019-01-22T12:56:36.416Z,40.90
2019-01-22T12:57:37.063Z,40.60
2019-01-22T12:58:37.086Z,41.30
2019-01-22T12:59:36.932Z,41.10
2019-01-22T13:00:37.219Z,39.80
2019-01-22T13:01:37.904Z,40.70
2019-01-22T13:02:37.751Z,40.70
2019-01-22T13:03:38.061Z,39.80
2019-01-22T13:04:38.409Z,39.60
2019-01-22T13:05:39.060Z,40.40
2019-01-22T13:06:39.073Z,40.00
2019-01-22T13:07:39.491Z,41.00
2019-01-22T13:08:40.205Z,41.20
2019-01-22T13:10:40.024Z,37.00
2019-01-22T13:11:41.251Z,38.10
2019-01-22T13:12:41.331Z,38.40
2019-01-22T13:13:41.569Z,38.20
2019-01-22T13:14:41.775Z,39.00
2019-01-22T13:15:42.191Z,38.90
2019-01-22T13:16:42.414Z,38.50